sensor_id;sensor_type;location;lat;lon;timestamp;temperature;humidity
36690;DHT22;22676;51.120;3.702;2022-10-30T00:02:40;22.40;63.90
36690;DHT22;22676;51.120;3.702;2022-10-30T00:05:30;22.40;64.50
36690;DHT22;22676;51.120;3.702;2022-10-30T00:08:22;22.40;64.70
36690;DHT22;22676;51.120;3.702;2022-10-30T00:11:13;22.40;64.80
36690;DHT22;22676;51.120;3.702;2022-10-30T00:14:04;22.50;64.70
36690;DHT22;22676;51.120;3.702;2022-10-30T00:16:55;22.40;64.90
36690;DHT22;22676;51.120;3.702;2022-10-30T00:19:46;22.40;64.90
36690;DHT22;22676;51.120;3.702;2022-10-30T00:22:37;22.40;65.00
36690;DHT22;22676;51.120;3.702;2022-10-30T00:25:27;22.50;65.20
36690;DHT22;22676;51.120;3.702;2022-10-30T00:28:19;22.50;65.10
36690;DHT22;22676;51.120;3.702;2022-10-30T00:31:09;22.40;65.20
36690;DHT22;22676;51.120;3.702;2022-10-30T00:34:00;22.40;65.20
36690;DHT22;22676;51.120;3.702;2022-10-30T00:36:50;22.40;65.00
36690;DHT22;22676;51.120;3.702;2022-10-30T00:39:42;22.40;65.20
36690;DHT22;22676;51.120;3.702;2022-10-30T00:42:32;22.40;65.20
36690;DHT22;22676;51.120;3.702;2022-10-30T00:45:23;22.50;65.10
36690;DHT22;22676;51.120;3.702;2022-10-30T00:48:15;22.50;65.20
36690;DHT22;22676;51.120;3.702;2022-10-30T00:51:06;22.40;65.20
36690;DHT22;22676;51.120;3.702;2022-10-30T00:54:00;22.40;65.20
36690;DHT22;22676;51.120;3.702;2022-10-30T00:56:52;22.40;62.90
36690;DHT22;22676;51.120;3.702;2022-10-30T00:59:44;22.40;62.60
36690;DHT22;22676;51.120;3.702;2022-10-30T01:05:45;22.40;64.60
36690;DHT22;22676;51.120;3.702;2022-10-30T01:08:37;22.40;64.70
36690;DHT22;22676;51.120;3.702;2022-10-30T01:11:28;22.40;65.00
36690;DHT22;22676;51.120;3.702;2022-10-30T01:14:20;22.40;65.00
36690;DHT22;22676;51.120;3.702;2022-10-30T01:17:15;22.40;65.00
36690;DHT22;22676;51.120;3.702;2022-10-30T01:20:18;22.40;65.10
36690;DHT22;22676;51.120;3.702;2022-10-30T01:29:11;22.40;65.10
36690;DHT22;22676;51.120;3.702;2022-10-30T02:22:02;22.40;64.00
36690;DHT22;22676;51.120;3.702;2022-10-30T02:24:53;22.40;64.10
36690;DHT22;22676;51.120;3.702;2022-10-30T02:27:43;22.40;64.20
36690;DHT22;22676;51.120;3.702;2022-10-30T02:30:34;22.40;64.10
36690;DHT22;22676;51.120;3.702;2022-10-30T02:33:26;22.40;64.10
36690;DHT22;22676;51.120;3.702;2022-10-30T02:36:17;22.40;64.00
36690;DHT22;22676;51.120;3.702;2022-10-30T02:39:07;22.40;64.00
36690;DHT22;22676;51.120;3.702;2022-10-30T02:41:58;22.40;63.90
36690;DHT22;22676;51.120;3.702;2022-10-30T02:44:49;22.30;64.00
36690;DHT22;22676;51.120;3.702;2022-10-30T02:47:41;22.40;64.20
36690;DHT22;22676;51.120;3.702;2022-10-30T02:50:32;22.30;64.00
36690;DHT22;22676;51.120;3.702;2022-10-30T02:53:23;22.30;63.90
36690;DHT22;22676;51.120;3.702;2022-10-30T02:56:14;22.30;62.20
36690;DHT22;22676;51.120;3.702;2022-10-30T02:59:04;22.30;61.90
36690;DHT22;22676;51.120;3.702;2022-10-30T03:01:55;22.30;63.20
36690;DHT22;22676;51.120;3.702;2022-10-30T03:04:58;22.30;63.60
36690;DHT22;22676;51.120;3.702;2022-10-30T03:07:49;22.20;63.50
36690;DHT22;22676;51.120;3.702;2022-10-30T03:10:39;22.30;63.60
36690;DHT22;22676;51.120;3.702;2022-10-30T03:13:30;22.30;63.50
36690;DHT22;22676;51.120;3.702;2022-10-30T03:19:31;22.30;63.80
36690;DHT22;22676;51.120;3.702;2022-10-30T03:22:21;22.30;63.60
36690;DHT22;22676;51.120;3.702;2022-10-30T03:25:12;22.20;63.60
36690;DHT22;22676;51.120;3.702;2022-10-30T03:28:03;22.20;63.80
36690;DHT22;22676;51.120;3.702;2022-10-30T03:31:00;22.30;63.70
36690;DHT22;22676;51.120;3.702;2022-10-30T03:33:51;22.20;63.80
36690;DHT22;22676;51.120;3.702;2022-10-30T03:36:43;22.20;63.80
36690;DHT22;22676;51.120;3.702;2022-10-30T03:39:33;22.20;63.80
36690;DHT22;22676;51.120;3.702;2022-10-30T03:42:25;22.30;63.90
36690;DHT22;22676;51.120;3.702;2022-10-30T03:45:16;22.20;63.70
36690;DHT22;22676;51.120;3.702;2022-10-30T03:48:07;22.20;63.70
36690;DHT22;22676;51.120;3.702;2022-10-30T03:50:58;22.20;63.70
36690;DHT22;22676;51.120;3.702;2022-10-30T03:53:49;22.20;63.80
36690;DHT22;22676;51.120;3.702;2022-10-30T03:56:39;22.20;62.00
36690;DHT22;22676;51.120;3.702;2022-10-30T03:59:30;22.10;61.90
36690;DHT22;22676;51.120;3.702;2022-10-30T04:02:21;22.10;63.30
36690;DHT22;22676;51.120;3.702;2022-10-30T04:33:39;22.10;63.40
36690;DHT22;22676;51.120;3.702;2022-10-30T04:36:30;22.10;63.40
36690;DHT22;22676;51.120;3.702;2022-10-30T04:39:21;22.10;63.50
36690;DHT22;22676;51.120;3.702;2022-10-30T04:42:12;22.10;63.60
36690;DHT22;22676;51.120;3.702;2022-10-30T04:45:03;22.10;63.50
36690;DHT22;22676;51.120;3.702;2022-10-30T04:48:04;22.10;63.50
36690;DHT22;22676;51.120;3.702;2022-10-30T04:50:59;22.10;63.60
36690;DHT22;22676;51.120;3.702;2022-10-30T04:53:49;22.10;63.70
36690;DHT22;22676;51.120;3.702;2022-10-30T04:56:39;22.00;61.80
36690;DHT22;22676;51.120;3.702;2022-10-30T04:59:30;21.90;61.50
36690;DHT22;22676;51.120;3.702;2022-10-30T05:02:21;22.00;63.20
36690;DHT22;22676;51.120;3.702;2022-10-30T05:05:31;22.00;63.30
36690;DHT22;22676;51.120;3.702;2022-10-30T05:08:22;22.00;63.30
36690;DHT22;22676;51.120;3.702;2022-10-30T05:11:13;22.00;63.20
36690;DHT22;22676;51.120;3.702;2022-10-30T05:14:04;22.00;63.20
36690;DHT22;22676;51.120;3.702;2022-10-30T05:16:55;22.00;63.30
36690;DHT22;22676;51.120;3.702;2022-10-30T05:19:45;22.00;63.40
36690;DHT22;22676;51.120;3.702;2022-10-30T05:22:36;22.00;63.30
36690;DHT22;22676;51.120;3.702;2022-10-30T05:25:27;22.00;63.40
36690;DHT22;22676;51.120;3.702;2022-10-30T05:28:17;22.00;63.50
36690;DHT22;22676;51.120;3.702;2022-10-30T05:44:00;22.00;63.40
36690;DHT22;22676;51.120;3.702;2022-10-30T05:46:51;22.00;63.40
36690;DHT22;22676;51.120;3.702;2022-10-30T05:49:42;22.00;63.50
36690;DHT22;22676;51.120;3.702;2022-10-30T05:52:33;21.90;63.30
36690;DHT22;22676;51.120;3.702;2022-10-30T05:55:24;21.90;61.90
36690;DHT22;22676;51.120;3.702;2022-10-30T05:58:15;21.90;61.60
36690;DHT22;22676;51.120;3.702;2022-10-30T06:01:06;21.90;61.40
36690;DHT22;22676;51.120;3.702;2022-10-30T06:09:11;21.70;61.40
36690;DHT22;22676;51.120;3.702;2022-10-30T06:11:37;21.70;61.60
36690;DHT22;22676;51.120;3.702;2022-10-30T06:14:31;21.60;61.70
36690;DHT22;22676;51.120;3.702;2022-10-30T06:17:19;21.60;61.70
36690;DHT22;22676;51.120;3.702;2022-10-30T07:35:14;21.80;61.90
36690;DHT22;22676;51.120;3.702;2022-10-30T07:38:05;21.80;61.80
36690;DHT22;22676;51.120;3.702;2022-10-30T07:40:57;21.80;61.60
36690;DHT22;22676;51.120;3.702;2022-10-30T07:43:48;21.90;61.50
36690;DHT22;22676;51.120;3.702;2022-10-30T07:46:39;21.90;61.50
36690;DHT22;22676;51.120;3.702;2022-10-30T07:49:30;22.00;61.60
36690;DHT22;22676;51.120;3.702;2022-10-30T07:52:20;22.00;61.50
36690;DHT22;22676;51.120;3.702;2022-10-30T07:55:12;22.10;61.50
36690;DHT22;22676;51.120;3.702;2022-10-30T07:58:03;22.10;61.40
36690;DHT22;22676;51.120;3.702;2022-10-30T08:00:54;22.10;61.30
36690;DHT22;22676;51.120;3.702;2022-10-30T11:02:39;22.50;62.80
36690;DHT22;22676;51.120;3.702;2022-10-30T11:08:24;22.50;62.80
36690;DHT22;22676;51.120;3.702;2022-10-30T11:17:30;22.50;62.20
36690;DHT22;22676;51.120;3.702;2022-10-30T13:22:29;22.80;62.80
36690;DHT22;22676;51.120;3.702;2022-10-30T14:20:33;22.60;62.10
36690;DHT22;22676;51.120;3.702;2022-10-30T14:26:17;22.60;62.20
36690;DHT22;22676;51.120;3.702;2022-10-30T14:29:28;22.60;62.20
36690;DHT22;22676;51.120;3.702;2022-10-30T14:35:30;22.60;62.30
36690;DHT22;22676;51.120;3.702;2022-10-30T14:38:22;22.60;62.20
36690;DHT22;22676;51.120;3.702;2022-10-30T14:41:57;22.60;62.20
36690;DHT22;22676;51.120;3.702;2022-10-30T14:44:48;22.60;62.20
36690;DHT22;22676;51.120;3.702;2022-10-30T14:54:00;22.60;62.40
36690;DHT22;22676;51.120;3.702;2022-10-30T14:56:51;22.70;62.50
36690;DHT22;22676;51.120;3.702;2022-10-30T14:59:42;22.70;62.40
36690;DHT22;22676;51.120;3.702;2022-10-30T15:02:35;22.70;62.30
36690;DHT22;22676;51.120;3.702;2022-10-30T15:08:45;22.70;62.20
36690;DHT22;22676;51.120;3.702;2022-10-30T15:20:21;22.60;61.70
36690;DHT22;22676;51.120;3.702;2022-10-30T15:23:18;22.50;61.90
36690;DHT22;22676;51.120;3.702;2022-10-30T15:26:21;22.60;62.20
36690;DHT22;22676;51.120;3.702;2022-10-30T15:29:23;22.60;62.10
36690;DHT22;22676;51.120;3.702;2022-10-30T15:32:16;22.60;62.30
36690;DHT22;22676;51.120;3.702;2022-10-30T15:35:15;22.60;62.30
36690;DHT22;22676;51.120;3.702;2022-10-30T15:38:06;22.60;62.10
36690;DHT22;22676;51.120;3.702;2022-10-30T15:41:00;22.60;62.10
36690;DHT22;22676;51.120;3.702;2022-10-30T15:43:51;22.60;62.10
36690;DHT22;22676;51.120;3.702;2022-10-30T15:46:45;22.70;62.20
36690;DHT22;22676;51.120;3.702;2022-10-30T15:49:37;22.60;62.10
36690;DHT22;22676;51.120;3.702;2022-10-30T15:52:29;22.70;62.20
36690;DHT22;22676;51.120;3.702;2022-10-30T15:55:24;22.60;62.10
36690;DHT22;22676;51.120;3.702;2022-10-30T15:58:16;22.70;62.30
36690;DHT22;22676;51.120;3.702;2022-10-30T16:01:22;22.70;62.30
36690;DHT22;22676;51.120;3.702;2022-10-30T16:04:22;22.70;62.30
36690;DHT22;22676;51.120;3.702;2022-10-30T16:10:08;22.60;62.30
36690;DHT22;22676;51.120;3.702;2022-10-30T16:12:59;22.60;62.50
36690;DHT22;22676;51.120;3.702;2022-10-30T16:19:00;22.60;62.30
36690;DHT22;22676;51.120;3.702;2022-10-30T16:21:52;22.50;62.50
36690;DHT22;22676;51.120;3.702;2022-10-30T16:24:44;22.50;62.50
36690;DHT22;22676;51.120;3.702;2022-10-30T16:27:40;22.50;62.60
36690;DHT22;22676;51.120;3.702;2022-10-30T16:30:32;22.50;62.50
36690;DHT22;22676;51.120;3.702;2022-10-30T16:33:24;22.40;62.60
36690;DHT22;22676;51.120;3.702;2022-10-30T16:36:15;22.40;62.60
36690;DHT22;22676;51.120;3.702;2022-10-30T16:39:07;22.40;62.70
36690;DHT22;22676;51.120;3.702;2022-10-30T16:41:59;22.40;62.70
36690;DHT22;22676;51.120;3.702;2022-10-30T16:44:50;22.40;62.70
36690;DHT22;22676;51.120;3.702;2022-10-30T16:47:48;22.40;62.70
36690;DHT22;22676;51.120;3.702;2022-10-30T16:50:40;22.40;62.80
36690;DHT22;22676;51.120;3.702;2022-10-30T16:53:31;22.40;62.80
36690;DHT22;22676;51.120;3.702;2022-10-30T16:56:26;22.40;62.80
36690;DHT22;22676;51.120;3.702;2022-10-30T16:59:30;22.40;62.90
36690;DHT22;22676;51.120;3.702;2022-10-30T17:02:23;22.40;62.80
36690;DHT22;22676;51.120;3.702;2022-10-30T17:21:08;22.50;64.10
36690;DHT22;22676;51.120;3.702;2022-10-30T17:24:00;22.50;63.90
36690;DHT22;22676;51.120;3.702;2022-10-30T17:26:55;22.50;64.30
36690;DHT22;22676;51.120;3.702;2022-10-30T17:29:46;22.50;64.20
36690;DHT22;22676;51.120;3.702;2022-10-30T17:32:41;22.50;64.50
36690;DHT22;22676;51.120;3.702;2022-10-30T17:35:33;22.50;64.70
36690;DHT22;22676;51.120;3.702;2022-10-30T17:38:24;22.50;64.60
36690;DHT22;22676;51.120;3.702;2022-10-30T17:41:14;22.40;63.30
36690;DHT22;22676;51.120;3.702;2022-10-30T17:47:16;22.30;63.00
36690;DHT22;22676;51.120;3.702;2022-10-30T17:50:07;22.20;62.80
36690;DHT22;22676;51.120;3.702;2022-10-30T17:52:58;22.20;62.70
36690;DHT22;22676;51.120;3.702;2022-10-30T17:55:51;22.10;62.70
36690;DHT22;22676;51.120;3.702;2022-10-30T17:58:43;22.10;62.70
36690;DHT22;22676;51.120;3.702;2022-10-30T18:01:33;22.10;62.80
36690;DHT22;22676;51.120;3.702;2022-10-30T18:04:40;22.00;62.70
36690;DHT22;22676;51.120;3.702;2022-10-30T18:07:31;22.10;62.70
36690;DHT22;22676;51.120;3.702;2022-10-30T18:10:22;22.00;62.60
36690;DHT22;22676;51.120;3.702;2022-10-30T18:13:13;22.00;62.70
36690;DHT22;22676;51.120;3.702;2022-10-30T18:16:04;22.00;62.70
36690;DHT22;22676;51.120;3.702;2022-10-30T18:18:55;22.00;62.50
36690;DHT22;22676;51.120;3.702;2022-10-30T18:34:36;21.90;62.20
36690;DHT22;22676;51.120;3.702;2022-10-30T18:37:27;21.90;62.30
36690;DHT22;22676;51.120;3.702;2022-10-30T18:40:19;21.90;62.20
36690;DHT22;22676;51.120;3.702;2022-10-30T18:43:11;21.90;62.20
36690;DHT22;22676;51.120;3.702;2022-10-30T18:46:02;21.80;62.10
36690;DHT22;22676;51.120;3.702;2022-10-30T18:48:53;21.80;62.10
36690;DHT22;22676;51.120;3.702;2022-10-30T18:51:44;21.80;62.10
36690;DHT22;22676;51.120;3.702;2022-10-30T18:54:35;21.80;62.10
36690;DHT22;22676;51.120;3.702;2022-10-30T18:57:26;21.90;61.90
36690;DHT22;22676;51.120;3.702;2022-10-30T19:00:18;21.90;61.80
36690;DHT22;22676;51.120;3.702;2022-10-30T19:03:09;21.90;61.80
36690;DHT22;22676;51.120;3.702;2022-10-30T20:03:02;22.00;61.50
36690;DHT22;22676;51.120;3.702;2022-10-30T21:11:31;21.90;60.10
36690;DHT22;22676;51.120;3.702;2022-10-30T21:14:22;21.90;60.10
36690;DHT22;22676;51.120;3.702;2022-10-30T21:17:13;21.90;60.00
36690;DHT22;22676;51.120;3.702;2022-10-30T21:20:04;21.90;59.90
36690;DHT22;22676;51.120;3.702;2022-10-30T21:22:55;21.90;59.60
36690;DHT22;22676;51.120;3.702;2022-10-30T21:25:46;21.90;59.60
36690;DHT22;22676;51.120;3.702;2022-10-30T21:28:37;21.90;59.70
36690;DHT22;22676;51.120;3.702;2022-10-30T21:31:28;21.80;59.70
36690;DHT22;22676;51.120;3.702;2022-10-30T21:34:19;21.80;59.80
36690;DHT22;22676;51.120;3.702;2022-10-30T21:37:10;21.80;59.80
36690;DHT22;22676;51.120;3.702;2022-10-30T21:40:01;21.70;59.80
36690;DHT22;22676;51.120;3.702;2022-10-30T21:42:52;21.70;59.80
36690;DHT22;22676;51.120;3.702;2022-10-30T21:45:43;21.70;59.80
36690;DHT22;22676;51.120;3.702;2022-10-30T21:48:34;21.70;59.70
36690;DHT22;22676;51.120;3.702;2022-10-30T21:51:25;21.80;59.90
36690;DHT22;22676;51.120;3.702;2022-10-30T21:54:16;21.70;59.80
36690;DHT22;22676;51.120;3.702;2022-10-30T21:57:07;21.70;59.70
36690;DHT22;22676;51.120;3.702;2022-10-30T22:00:02;21.70;59.80
36690;DHT22;22676;51.120;3.702;2022-10-30T22:02:54;21.70;59.70
36690;DHT22;22676;51.120;3.702;2022-10-30T22:06:03;21.60;60.30
36690;DHT22;22676;51.120;3.702;2022-10-30T22:08:54;21.70;60.70
36690;DHT22;22676;51.120;3.702;2022-10-30T22:11:45;21.70;60.60
36690;DHT22;22676;51.120;3.702;2022-10-30T22:14:35;21.80;60.60
36690;DHT22;22676;51.120;3.702;2022-10-30T22:17:26;21.90;60.80
36690;DHT22;22676;51.120;3.702;2022-10-30T22:20:17;21.90;60.70
36690;DHT22;22676;51.120;3.702;2022-10-30T22:23:08;21.80;60.70
36690;DHT22;22676;51.120;3.702;2022-10-30T22:26:00;21.90;60.60
36690;DHT22;22676;51.120;3.702;2022-10-30T22:28:55;21.90;60.80
36690;DHT22;22676;51.120;3.702;2022-10-30T22:31:46;21.90;60.90
36690;DHT22;22676;51.120;3.702;2022-10-30T22:34:37;21.90;61.10
36690;DHT22;22676;51.120;3.702;2022-10-30T22:37:28;21.90;60.90
36690;DHT22;22676;51.120;3.702;2022-10-30T22:40:19;21.90;61.10
36690;DHT22;22676;51.120;3.702;2022-10-30T22:43:10;21.90;61.10
36690;DHT22;22676;51.120;3.702;2022-10-30T22:46:01;21.90;61.20
36690;DHT22;22676;51.120;3.702;2022-10-30T22:48:52;21.90;61.30
36690;DHT22;22676;51.120;3.702;2022-10-30T22:51:43;21.90;61.10
36690;DHT22;22676;51.120;3.702;2022-10-30T22:54:34;21.90;61.40
36690;DHT22;22676;51.120;3.702;2022-10-30T22:57:25;21.90;61.20
36690;DHT22;22676;51.120;3.702;2022-10-30T23:00:16;21.90;59.90
36690;DHT22;22676;51.120;3.702;2022-10-30T23:03:13;21.90;59.80
36690;DHT22;22676;51.120;3.702;2022-10-30T23:06:25;21.80;60.90
36690;DHT22;22676;51.120;3.702;2022-10-30T23:09:17;21.90;61.40
36690;DHT22;22676;51.120;3.702;2022-10-30T23:12:08;21.80;61.20
36690;DHT22;22676;51.120;3.702;2022-10-30T23:14:59;21.80;61.20
36690;DHT22;22676;51.120;3.702;2022-10-30T23:17:50;21.80;61.60
36690;DHT22;22676;51.120;3.702;2022-10-30T23:20:41;21.80;61.60
36690;DHT22;22676;51.120;3.702;2022-10-30T23:23:33;21.80;61.50
36690;DHT22;22676;51.120;3.702;2022-10-30T23:26:25;21.80;61.80
36690;DHT22;22676;51.120;3.702;2022-10-30T23:29:16;21.80;61.70
36690;DHT22;22676;51.120;3.702;2022-10-30T23:32:07;21.80;61.70
36690;DHT22;22676;51.120;3.702;2022-10-30T23:34:58;21.80;61.60
36690;DHT22;22676;51.120;3.702;2022-10-30T23:37:49;21.80;61.80
36690;DHT22;22676;51.120;3.702;2022-10-30T23:40:40;21.80;61.60
36690;DHT22;22676;51.120;3.702;2022-10-30T23:43:31;21.80;61.80
36690;DHT22;22676;51.120;3.702;2022-10-30T23:46:22;21.80;61.60
36690;DHT22;22676;51.120;3.702;2022-10-30T23:49:13;21.80;61.60
36690;DHT22;22676;51.120;3.702;2022-10-30T23:52:04;21.80;61.70
36690;DHT22;22676;51.120;3.702;2022-10-30T23:54:55;21.80;61.70
36690;DHT22;22676;51.120;3.702;2022-10-30T23:57:46;21.80;61.80
